sensor_id;sensor_type;location;lat;lon;timestamp;P1;durP1;ratioP1;P2;durP2;ratioP2
76612;SDS011;65507;48.454;-2.058;2023-02-18T00:02:12;7.10;;;1.50;;
76612;SDS011;65507;48.454;-2.058;2023-02-18T00:04:38;1.92;;;1.10;;
76612;SDS011;65507;48.454;-2.058;2023-02-18T00:07:03;3.83;;;1.23;;
76612;SDS011;65507;48.454;-2.058;2023-02-18T00:09:29;4.85;;;1.50;;
76612;SDS011;65507;48.454;-2.058;2023-02-18T00:11:55;2.75;;;1.45;;
76612;SDS011;65507;48.454;-2.058;2023-02-18T00:14:20;4.25;;;1.63;;
76612;SDS011;65507;48.454;-2.058;2023-02-18T00:16:46;4.78;;;1.30;;
76612;SDS011;65507;48.454;-2.058;2023-02-18T00:19:13;4.28;;;1.55;;
76612;SDS011;65507;48.454;-2.058;2023-02-18T00:21:41;3.17;;;1.20;;
76612;SDS011;65507;48.454;-2.058;2023-02-18T00:24:06;1.65;;;1.08;;
76612;SDS011;65507;48.454;-2.058;2023-02-18T00:26:33;3.90;;;1.55;;
76612;SDS011;65507;48.454;-2.058;2023-02-18T00:29:02;2.78;;;1.25;;
76612;SDS011;65507;48.454;-2.058;2023-02-18T00:31:30;5.35;;;1.52;;
76612;SDS011;65507;48.454;-2.058;2023-02-18T00:33:58;3.63;;;1.20;;
76612;SDS011;65507;48.454;-2.058;2023-02-18T00:36:24;4.90;;;1.42;;
76612;SDS011;65507;48.454;-2.058;2023-02-18T00:38:51;4.10;;;1.40;;
76612;SDS011;65507;48.454;-2.058;2023-02-18T00:41:18;8.77;;;1.55;;
76612;SDS011;65507;48.454;-2.058;2023-02-18T00:43:45;4.32;;;1.50;;
76612;SDS011;65507;48.454;-2.058;2023-02-18T00:46:11;3.83;;;2.05;;
76612;SDS011;65507;48.454;-2.058;2023-02-18T00:48:37;4.82;;;1.80;;
76612;SDS011;65507;48.454;-2.058;2023-02-18T00:51:04;5.22;;;1.25;;
76612;SDS011;65507;48.454;-2.058;2023-02-18T00:53:30;5.82;;;1.40;;
76612;SDS011;65507;48.454;-2.058;2023-02-18T00:55:57;5.40;;;1.40;;
76612;SDS011;65507;48.454;-2.058;2023-02-18T00:58:23;3.20;;;1.17;;
76612;SDS011;65507;48.454;-2.058;2023-02-18T01:00:49;1.65;;;1.23;;
76612;SDS011;65507;48.454;-2.058;2023-02-18T01:03:15;3.60;;;1.10;;
76612;SDS011;65507;48.454;-2.058;2023-02-18T01:05:42;4.32;;;1.25;;
76612;SDS011;65507;48.454;-2.058;2023-02-18T01:08:08;1.77;;;1.08;;
76612;SDS011;65507;48.454;-2.058;2023-02-18T01:10:36;2.85;;;1.10;;
76612;SDS011;65507;48.454;-2.058;2023-02-18T01:13:05;5.40;;;0.50;;
76612;SDS011;65507;48.454;-2.058;2023-02-18T01:15:30;3.78;;;1.08;;
76612;SDS011;65507;48.454;-2.058;2023-02-18T01:17:56;2.65;;;1.10;;
76612;SDS011;65507;48.454;-2.058;2023-02-18T01:20:22;2.05;;;0.80;;
76612;SDS011;65507;48.454;-2.058;2023-02-18T01:22:47;2.63;;;0.90;;
76612;SDS011;65507;48.454;-2.058;2023-02-18T01:25:13;4.93;;;0.77;;
76612;SDS011;65507;48.454;-2.058;2023-02-18T01:27:40;2.70;;;0.80;;
76612;SDS011;65507;48.454;-2.058;2023-02-18T01:30:07;3.33;;;0.60;;
76612;SDS011;65507;48.454;-2.058;2023-02-18T01:32:34;3.70;;;1.17;;
76612;SDS011;65507;48.454;-2.058;2023-02-18T01:35:00;1.30;;;0.50;;
76612;SDS011;65507;48.454;-2.058;2023-02-18T01:37:28;1.50;;;0.57;;
76612;SDS011;65507;48.454;-2.058;2023-02-18T01:39:53;3.03;;;0.80;;
76612;SDS011;65507;48.454;-2.058;2023-02-18T01:42:21;1.05;;;0.65;;
76612;SDS011;65507;48.454;-2.058;2023-02-18T01:44:48;1.95;;;0.75;;
76612;SDS011;65507;48.454;-2.058;2023-02-18T01:47:15;1.73;;;0.85;;
76612;SDS011;65507;48.454;-2.058;2023-02-18T01:49:41;2.55;;;1.15;;
76612;SDS011;65507;48.454;-2.058;2023-02-18T01:52:16;2.97;;;0.63;;
76612;SDS011;65507;48.454;-2.058;2023-02-18T01:54:46;1.42;;;0.82;;
76612;SDS011;65507;48.454;-2.058;2023-02-18T01:57:34;3.95;;;0.80;;
76612;SDS011;65507;48.454;-2.058;2023-02-18T02:00:05;1.50;;;0.60;;
76612;SDS011;65507;48.454;-2.058;2023-02-18T02:02:36;2.28;;;0.75;;
76612;SDS011;65507;48.454;-2.058;2023-02-18T02:05:06;0.77;;;0.63;;
76612;SDS011;65507;48.454;-2.058;2023-02-18T02:07:32;1.23;;;0.60;;
76612;SDS011;65507;48.454;-2.058;2023-02-18T02:09:58;1.33;;;0.50;;
76612;SDS011;65507;48.454;-2.058;2023-02-18T02:18:21;3.35;;;0.80;;
76612;SDS011;65507;48.454;-2.058;2023-02-18T02:40:00;0.50;;;0.40;;
76612;SDS011;65507;48.454;-2.058;2023-02-18T02:43:05;0.80;;;0.60;;
76612;SDS011;65507;48.454;-2.058;2023-02-18T02:53:54;3.60;;;0.60;;
76612;SDS011;65507;48.454;-2.058;2023-02-18T02:56:34;1.00;;;0.50;;
76612;SDS011;65507;48.454;-2.058;2023-02-18T02:59:00;0.88;;;0.70;;
76612;SDS011;65507;48.454;-2.058;2023-02-18T03:06:56;1.85;;;0.50;;
76612;SDS011;65507;48.454;-2.058;2023-02-18T03:09:42;1.25;;;0.50;;
76612;SDS011;65507;48.454;-2.058;2023-02-18T03:12:29;1.55;;;0.60;;
76612;SDS011;65507;48.454;-2.058;2023-02-18T03:17:41;1.63;;;0.52;;
76612;SDS011;65507;48.454;-2.058;2023-02-18T03:20:15;0.55;;;0.38;;
76612;SDS011;65507;48.454;-2.058;2023-02-18T03:22:47;2.70;;;0.73;;
76612;SDS011;65507;48.454;-2.058;2023-02-18T03:25:16;3.38;;;0.50;;
76612;SDS011;65507;48.454;-2.058;2023-02-18T03:27:45;1.63;;;0.63;;
76612;SDS011;65507;48.454;-2.058;2023-02-18T03:32:48;1.88;;;0.40;;
76612;SDS011;65507;48.454;-2.058;2023-02-18T03:35:17;1.08;;;0.20;;
76612;SDS011;65507;48.454;-2.058;2023-02-18T03:37:48;1.17;;;0.50;;
76612;SDS011;65507;48.454;-2.058;2023-02-18T03:40:30;1.73;;;0.40;;
76612;SDS011;65507;48.454;-2.058;2023-02-18T03:42:57;0.88;;;0.40;;
76612;SDS011;65507;48.454;-2.058;2023-02-18T03:45:24;1.80;;;0.50;;
76612;SDS011;65507;48.454;-2.058;2023-02-18T03:47:51;2.42;;;0.40;;
76612;SDS011;65507;48.454;-2.058;2023-02-18T03:50:17;3.13;;;0.60;;
76612;SDS011;65507;48.454;-2.058;2023-02-18T03:52:43;2.05;;;0.40;;
76612;SDS011;65507;48.454;-2.058;2023-02-18T03:55:09;1.65;;;0.30;;
76612;SDS011;65507;48.454;-2.058;2023-02-18T03:57:37;1.85;;;0.40;;
76612;SDS011;65507;48.454;-2.058;2023-02-18T04:00:03;0.35;;;0.30;;
76612;SDS011;65507;48.454;-2.058;2023-02-18T04:02:31;2.42;;;0.60;;
76612;SDS011;65507;48.454;-2.058;2023-02-18T04:04:57;0.70;;;0.30;;
76612;SDS011;65507;48.454;-2.058;2023-02-18T04:07:23;0.40;;;0.30;;
76612;SDS011;65507;48.454;-2.058;2023-02-18T04:09:49;0.95;;;0.35;;
76612;SDS011;65507;48.454;-2.058;2023-02-18T04:12:15;4.35;;;0.90;;
76612;SDS011;65507;48.454;-2.058;2023-02-18T04:14:40;0.82;;;0.50;;
76612;SDS011;65507;48.454;-2.058;2023-02-18T04:17:06;4.43;;;0.85;;
76612;SDS011;65507;48.454;-2.058;2023-02-18T04:19:32;1.25;;;0.82;;
76612;SDS011;65507;48.454;-2.058;2023-02-18T04:21:57;3.00;;;0.90;;
76612;SDS011;65507;48.454;-2.058;2023-02-18T04:24:23;2.85;;;0.90;;
76612;SDS011;65507;48.454;-2.058;2023-02-18T04:26:49;1.60;;;0.80;;
76612;SDS011;65507;48.454;-2.058;2023-02-18T04:29:14;2.42;;;0.80;;
76612;SDS011;65507;48.454;-2.058;2023-02-18T04:31:40;3.90;;;0.90;;
76612;SDS011;65507;48.454;-2.058;2023-02-18T04:34:06;3.03;;;0.90;;
76612;SDS011;65507;48.454;-2.058;2023-02-18T04:36:32;1.30;;;0.80;;
76612;SDS011;65507;48.454;-2.058;2023-02-18T04:38:58;2.80;;;0.80;;
76612;SDS011;65507;48.454;-2.058;2023-02-18T04:41:23;2.80;;;0.88;;
76612;SDS011;65507;48.454;-2.058;2023-02-18T04:43:49;1.23;;;0.90;;
76612;SDS011;65507;48.454;-2.058;2023-02-18T04:46:15;1.10;;;0.55;;
76612;SDS011;65507;48.454;-2.058;2023-02-18T04:48:41;2.95;;;0.73;;
76612;SDS011;65507;48.454;-2.058;2023-02-18T04:51:07;2.13;;;0.70;;
76612;SDS011;65507;48.454;-2.058;2023-02-18T04:53:33;1.10;;;0.70;;
76612;SDS011;65507;48.454;-2.058;2023-02-18T04:55:58;1.80;;;0.77;;
76612;SDS011;65507;48.454;-2.058;2023-02-18T04:58:24;1.38;;;0.85;;
76612;SDS011;65507;48.454;-2.058;2023-02-18T05:00:50;2.08;;;0.75;;
76612;SDS011;65507;48.454;-2.058;2023-02-18T05:03:17;2.20;;;0.70;;
76612;SDS011;65507;48.454;-2.058;2023-02-18T05:05:43;2.67;;;0.65;;
76612;SDS011;65507;48.454;-2.058;2023-02-18T05:08:09;1.73;;;0.73;;
76612;SDS011;65507;48.454;-2.058;2023-02-18T05:10:36;3.17;;;0.90;;
76612;SDS011;65507;48.454;-2.058;2023-02-18T05:13:02;1.60;;;0.63;;
76612;SDS011;65507;48.454;-2.058;2023-02-18T05:15:28;1.15;;;0.80;;
76612;SDS011;65507;48.454;-2.058;2023-02-18T05:17:53;2.22;;;0.73;;
76612;SDS011;65507;48.454;-2.058;2023-02-18T05:20:19;1.42;;;0.85;;
76612;SDS011;65507;48.454;-2.058;2023-02-18T05:22:45;1.80;;;0.70;;
76612;SDS011;65507;48.454;-2.058;2023-02-18T05:25:10;1.40;;;0.90;;
76612;SDS011;65507;48.454;-2.058;2023-02-18T05:27:36;0.70;;;0.60;;
76612;SDS011;65507;48.454;-2.058;2023-02-18T05:30:02;0.73;;;0.55;;
76612;SDS011;65507;48.454;-2.058;2023-02-18T05:32:28;5.38;;;1.05;;
76612;SDS011;65507;48.454;-2.058;2023-02-18T05:34:54;1.25;;;0.70;;
76612;SDS011;65507;48.454;-2.058;2023-02-18T05:37:19;1.38;;;0.70;;
76612;SDS011;65507;48.454;-2.058;2023-02-18T05:39:45;2.40;;;0.80;;
76612;SDS011;65507;48.454;-2.058;2023-02-18T05:42:11;1.88;;;0.80;;
76612;SDS011;65507;48.454;-2.058;2023-02-18T05:44:37;4.03;;;0.88;;
76612;SDS011;65507;48.454;-2.058;2023-02-18T05:47:04;1.38;;;0.90;;
76612;SDS011;65507;48.454;-2.058;2023-02-18T05:49:32;2.00;;;0.82;;
76612;SDS011;65507;48.454;-2.058;2023-02-18T05:52:02;4.75;;;1.02;;
76612;SDS011;65507;48.454;-2.058;2023-02-18T05:54:28;3.00;;;1.05;;
76612;SDS011;65507;48.454;-2.058;2023-02-18T05:56:54;1.15;;;0.70;;
76612;SDS011;65507;48.454;-2.058;2023-02-18T05:59:20;2.22;;;1.13;;
76612;SDS011;65507;48.454;-2.058;2023-02-18T06:01:46;3.00;;;1.02;;
76612;SDS011;65507;48.454;-2.058;2023-02-18T06:04:12;0.88;;;0.80;;
76612;SDS011;65507;48.454;-2.058;2023-02-18T06:06:39;2.85;;;0.93;;
76612;SDS011;65507;48.454;-2.058;2023-02-18T06:09:05;4.03;;;0.70;;
76612;SDS011;65507;48.454;-2.058;2023-02-18T06:11:31;2.80;;;1.00;;
76612;SDS011;65507;48.454;-2.058;2023-02-18T06:13:57;3.15;;;0.60;;
76612;SDS011;65507;48.454;-2.058;2023-02-18T06:16:23;1.20;;;0.80;;
76612;SDS011;65507;48.454;-2.058;2023-02-18T06:18:49;0.73;;;0.50;;
76612;SDS011;65507;48.454;-2.058;2023-02-18T06:21:14;1.48;;;0.75;;
76612;SDS011;65507;48.454;-2.058;2023-02-18T06:23:40;2.58;;;0.73;;
76612;SDS011;65507;48.454;-2.058;2023-02-18T06:26:06;1.77;;;0.70;;
76612;SDS011;65507;48.454;-2.058;2023-02-18T06:28:32;4.10;;;0.80;;
76612;SDS011;65507;48.454;-2.058;2023-02-18T06:30:57;1.80;;;0.73;;
76612;SDS011;65507;48.454;-2.058;2023-02-18T06:33:23;1.30;;;0.50;;
76612;SDS011;65507;48.454;-2.058;2023-02-18T06:36:00;1.75;;;0.68;;
76612;SDS011;65507;48.454;-2.058;2023-02-18T06:38:30;1.92;;;1.00;;
76612;SDS011;65507;48.454;-2.058;2023-02-18T06:40:56;2.30;;;0.70;;
76612;SDS011;65507;48.454;-2.058;2023-02-18T06:43:22;4.15;;;0.77;;
76612;SDS011;65507;48.454;-2.058;2023-02-18T06:45:47;2.25;;;0.60;;
76612;SDS011;65507;48.454;-2.058;2023-02-18T06:48:13;2.00;;;0.90;;
76612;SDS011;65507;48.454;-2.058;2023-02-18T06:50:40;1.48;;;0.77;;
76612;SDS011;65507;48.454;-2.058;2023-02-18T06:53:06;0.60;;;0.50;;
76612;SDS011;65507;48.454;-2.058;2023-02-18T06:55:32;1.13;;;0.50;;
76612;SDS011;65507;48.454;-2.058;2023-02-18T06:57:58;5.40;;;0.68;;
76612;SDS011;65507;48.454;-2.058;2023-02-18T07:00:23;1.98;;;0.50;;
76612;SDS011;65507;48.454;-2.058;2023-02-18T07:02:49;1.70;;;0.50;;
76612;SDS011;65507;48.454;-2.058;2023-02-18T07:05:15;2.38;;;0.60;;
76612;SDS011;65507;48.454;-2.058;2023-02-18T07:07:41;0.98;;;0.70;;
76612;SDS011;65507;48.454;-2.058;2023-02-18T07:10:07;2.28;;;0.60;;
76612;SDS011;65507;48.454;-2.058;2023-02-18T07:12:33;0.60;;;0.50;;
76612;SDS011;65507;48.454;-2.058;2023-02-18T07:14:59;1.13;;;0.47;;
76612;SDS011;65507;48.454;-2.058;2023-02-18T07:17:25;1.15;;;0.57;;
76612;SDS011;65507;48.454;-2.058;2023-02-18T07:19:50;1.58;;;0.30;;
76612;SDS011;65507;48.454;-2.058;2023-02-18T07:22:16;0.68;;;0.55;;
76612;SDS011;65507;48.454;-2.058;2023-02-18T07:24:42;1.38;;;0.40;;
76612;SDS011;65507;48.454;-2.058;2023-02-18T07:27:08;0.82;;;0.50;;
76612;SDS011;65507;48.454;-2.058;2023-02-18T07:29:34;0.40;;;0.40;;
76612;SDS011;65507;48.454;-2.058;2023-02-18T07:31:59;0.85;;;0.57;;
76612;SDS011;65507;48.454;-2.058;2023-02-18T07:34:25;1.77;;;0.50;;
76612;SDS011;65507;48.454;-2.058;2023-02-18T07:36:51;1.00;;;0.90;;
76612;SDS011;65507;48.454;-2.058;2023-02-18T07:39:16;3.30;;;0.70;;
76612;SDS011;65507;48.454;-2.058;2023-02-18T07:41:45;2.78;;;0.60;;
76612;SDS011;65507;48.454;-2.058;2023-02-18T07:44:11;0.98;;;0.50;;
76612;SDS011;65507;48.454;-2.058;2023-02-18T07:46:38;1.27;;;0.65;;
76612;SDS011;65507;48.454;-2.058;2023-02-18T07:49:05;0.50;;;0.50;;
76612;SDS011;65507;48.454;-2.058;2023-02-18T07:51:31;1.05;;;0.63;;
76612;SDS011;65507;48.454;-2.058;2023-02-18T07:53:56;0.95;;;0.70;;
76612;SDS011;65507;48.454;-2.058;2023-02-18T07:56:22;1.08;;;0.60;;
76612;SDS011;65507;48.454;-2.058;2023-02-18T07:58:47;1.42;;;0.57;;
76612;SDS011;65507;48.454;-2.058;2023-02-18T08:01:13;1.27;;;0.50;;
76612;SDS011;65507;48.454;-2.058;2023-02-18T08:03:40;0.40;;;0.40;;
76612;SDS011;65507;48.454;-2.058;2023-02-18T08:06:06;3.47;;;0.75;;
76612;SDS011;65507;48.454;-2.058;2023-02-18T08:08:32;0.60;;;0.60;;
76612;SDS011;65507;48.454;-2.058;2023-02-18T08:10:59;0.52;;;0.52;;
76612;SDS011;65507;48.454;-2.058;2023-02-18T08:13:27;1.58;;;0.60;;
76612;SDS011;65507;48.454;-2.058;2023-02-18T08:15:54;0.57;;;0.50;;
76612;SDS011;65507;48.454;-2.058;2023-02-18T08:18:21;2.17;;;0.50;;
76612;SDS011;65507;48.454;-2.058;2023-02-18T08:20:48;0.68;;;0.43;;
76612;SDS011;65507;48.454;-2.058;2023-02-18T08:23:15;2.42;;;0.50;;
76612;SDS011;65507;48.454;-2.058;2023-02-18T08:28:13;1.10;;;0.60;;
76612;SDS011;65507;48.454;-2.058;2023-02-18T08:30:42;1.60;;;0.73;;
76612;SDS011;65507;48.454;-2.058;2023-02-18T08:33:10;1.17;;;0.63;;
76612;SDS011;65507;48.454;-2.058;2023-02-18T08:35:35;1.45;;;0.55;;
76612;SDS011;65507;48.454;-2.058;2023-02-18T08:38:01;2.95;;;0.63;;
76612;SDS011;65507;48.454;-2.058;2023-02-18T08:40:26;2.58;;;0.43;;
76612;SDS011;65507;48.454;-2.058;2023-02-18T08:42:52;1.02;;;0.70;;
76612;SDS011;65507;48.454;-2.058;2023-02-18T08:45:18;0.57;;;0.50;;
76612;SDS011;65507;48.454;-2.058;2023-02-18T08:47:43;0.93;;;0.65;;
76612;SDS011;65507;48.454;-2.058;2023-02-18T08:50:09;0.80;;;0.60;;
76612;SDS011;65507;48.454;-2.058;2023-02-18T08:52:35;2.13;;;0.85;;
76612;SDS011;65507;48.454;-2.058;2023-02-18T08:55:01;1.02;;;0.70;;
76612;SDS011;65507;48.454;-2.058;2023-02-18T08:57:28;2.78;;;0.68;;
76612;SDS011;65507;48.454;-2.058;2023-02-18T08:59:57;0.73;;;0.50;;
76612;SDS011;65507;48.454;-2.058;2023-02-18T09:02:23;3.40;;;0.77;;
76612;SDS011;65507;48.454;-2.058;2023-02-18T09:04:48;3.33;;;0.73;;
76612;SDS011;65507;48.454;-2.058;2023-02-18T09:07:14;5.65;;;1.13;;
76612;SDS011;65507;48.454;-2.058;2023-02-18T09:09:40;2.58;;;0.90;;
76612;SDS011;65507;48.454;-2.058;2023-02-18T09:12:06;1.90;;;0.60;;
76612;SDS011;65507;48.454;-2.058;2023-02-18T09:14:32;1.33;;;0.70;;
76612;SDS011;65507;48.454;-2.058;2023-02-18T09:16:58;5.75;;;0.60;;
76612;SDS011;65507;48.454;-2.058;2023-02-18T09:19:24;1.58;;;1.00;;
76612;SDS011;65507;48.454;-2.058;2023-02-18T09:21:49;3.22;;;1.08;;
76612;SDS011;65507;48.454;-2.058;2023-02-18T09:24:19;2.05;;;1.20;;
76612;SDS011;65507;48.454;-2.058;2023-02-18T09:26:45;1.20;;;0.98;;
76612;SDS011;65507;48.454;-2.058;2023-02-18T09:29:10;2.30;;;0.90;;
76612;SDS011;65507;48.454;-2.058;2023-02-18T09:31:36;3.03;;;1.38;;
76612;SDS011;65507;48.454;-2.058;2023-02-18T09:34:03;2.30;;;1.42;;
76612;SDS011;65507;48.454;-2.058;2023-02-18T09:36:30;3.50;;;1.50;;
76612;SDS011;65507;48.454;-2.058;2023-02-18T09:38:56;6.07;;;1.70;;
76612;SDS011;65507;48.454;-2.058;2023-02-18T09:43:58;2.75;;;1.20;;
76612;SDS011;65507;48.454;-2.058;2023-02-18T09:49:25;3.15;;;1.80;;
76612;SDS011;65507;48.454;-2.058;2023-02-18T09:52:20;4.57;;;2.30;;
76612;SDS011;65507;48.454;-2.058;2023-02-18T09:54:54;3.90;;;1.85;;
76612;SDS011;65507;48.454;-2.058;2023-02-18T09:57:35;3.95;;;1.48;;
76612;SDS011;65507;48.454;-2.058;2023-02-18T10:00:12;6.07;;;1.50;;
76612;SDS011;65507;48.454;-2.058;2023-02-18T10:02:53;3.28;;;1.27;;
76612;SDS011;65507;48.454;-2.058;2023-02-18T10:05:22;2.45;;;1.15;;
76612;SDS011;65507;48.454;-2.058;2023-02-18T10:07:50;3.47;;;1.35;;
76612;SDS011;65507;48.454;-2.058;2023-02-18T10:10:31;1.13;;;0.95;;
76612;SDS011;65507;48.454;-2.058;2023-02-18T10:13:12;2.65;;;1.30;;
76612;SDS011;65507;48.454;-2.058;2023-02-18T10:15:49;4.85;;;2.08;;
76612;SDS011;65507;48.454;-2.058;2023-02-18T10:23:22;4.53;;;1.10;;
76612;SDS011;65507;48.454;-2.058;2023-02-18T10:25:48;6.75;;;1.40;;
76612;SDS011;65507;48.454;-2.058;2023-02-18T10:28:15;8.85;;;1.50;;
76612;SDS011;65507;48.454;-2.058;2023-02-18T10:36:01;2.88;;;1.10;;
76612;SDS011;65507;48.454;-2.058;2023-02-18T10:38:44;2.28;;;1.10;;
76612;SDS011;65507;48.454;-2.058;2023-02-18T10:41:36;3.88;;;1.20;;
76612;SDS011;65507;48.454;-2.058;2023-02-18T10:47:38;3.33;;;1.20;;
76612;SDS011;65507;48.454;-2.058;2023-02-18T10:50:12;2.78;;;1.08;;
76612;SDS011;65507;48.454;-2.058;2023-02-18T10:52:51;4.45;;;1.23;;
76612;SDS011;65507;48.454;-2.058;2023-02-18T10:55:32;2.38;;;1.15;;
76612;SDS011;65507;48.454;-2.058;2023-02-18T10:58:02;1.75;;;1.08;;
76612;SDS011;65507;48.454;-2.058;2023-02-18T11:00:32;7.70;;;1.45;;
76612;SDS011;65507;48.454;-2.058;2023-02-18T11:05:38;2.60;;;1.08;;
76612;SDS011;65507;48.454;-2.058;2023-02-18T11:08:06;1.88;;;0.60;;
76612;SDS011;65507;48.454;-2.058;2023-02-18T11:10:37;3.08;;;0.95;;
76612;SDS011;65507;48.454;-2.058;2023-02-18T11:13:05;2.22;;;0.80;;
76612;SDS011;65507;48.454;-2.058;2023-02-18T11:15:32;3.47;;;1.00;;
76612;SDS011;65507;48.454;-2.058;2023-02-18T11:21:02;3.67;;;1.10;;
76612;SDS011;65507;48.454;-2.058;2023-02-18T11:23:30;3.30;;;0.90;;
76612;SDS011;65507;48.454;-2.058;2023-02-18T11:25:57;1.35;;;0.93;;
76612;SDS011;65507;48.454;-2.058;2023-02-18T11:31:21;1.95;;;0.82;;
76612;SDS011;65507;48.454;-2.058;2023-02-18T11:33:50;2.20;;;0.85;;
76612;SDS011;65507;48.454;-2.058;2023-02-18T11:38:57;3.83;;;1.08;;
76612;SDS011;65507;48.454;-2.058;2023-02-18T11:41:31;1.63;;;1.05;;
76612;SDS011;65507;48.454;-2.058;2023-02-18T11:43:58;3.47;;;0.82;;
76612;SDS011;65507;48.454;-2.058;2023-02-18T11:46:25;2.50;;;1.05;;
76612;SDS011;65507;48.454;-2.058;2023-02-18T11:48:51;2.03;;;1.03;;
76612;SDS011;65507;48.454;-2.058;2023-02-18T11:51:19;2.33;;;1.00;;
76612;SDS011;65507;48.454;-2.058;2023-02-18T11:54:43;5.20;;;1.23;;
76612;SDS011;65507;48.454;-2.058;2023-02-18T11:56:59;2.65;;;0.95;;
76612;SDS011;65507;48.454;-2.058;2023-02-18T11:59:32;3.03;;;0.88;;
76612;SDS011;65507;48.454;-2.058;2023-02-18T12:09:48;2.92;;;0.90;;
76612;SDS011;65507;48.454;-2.058;2023-02-18T12:14:50;6.50;;;1.00;;
76612;SDS011;65507;48.454;-2.058;2023-02-18T12:19:52;1.35;;;0.88;;
76612;SDS011;65507;48.454;-2.058;2023-02-18T12:22:31;1.05;;;0.70;;
76612;SDS011;65507;48.454;-2.058;2023-02-18T12:33:18;4.07;;;0.93;;
76612;SDS011;65507;48.454;-2.058;2023-02-18T12:36:10;2.95;;;0.70;;
76612;SDS011;65507;48.454;-2.058;2023-02-18T12:38:54;0.55;;;0.50;;
76612;SDS011;65507;48.454;-2.058;2023-02-18T12:50:36;2.22;;;0.80;;
76612;SDS011;65507;48.454;-2.058;2023-02-18T12:58:58;3.05;;;0.60;;
76612;SDS011;65507;48.454;-2.058;2023-02-18T13:12:44;1.60;;;0.70;;
76612;SDS011;65507;48.454;-2.058;2023-02-18T13:17:59;3.17;;;1.10;;
76612;SDS011;65507;48.454;-2.058;2023-02-18T13:20:38;3.92;;;1.00;;
76612;SDS011;65507;48.454;-2.058;2023-02-18T13:23:18;3.05;;;0.80;;
76612;SDS011;65507;48.454;-2.058;2023-02-18T13:25:47;3.28;;;0.85;;
76612;SDS011;65507;48.454;-2.058;2023-02-18T13:33:57;3.03;;;1.05;;
76612;SDS011;65507;48.454;-2.058;2023-02-18T13:41:45;1.60;;;0.90;;
76612;SDS011;65507;48.454;-2.058;2023-02-18T13:46:54;2.25;;;0.82;;
76612;SDS011;65507;48.454;-2.058;2023-02-18T13:49:24;0.82;;;0.82;;
76612;SDS011;65507;48.454;-2.058;2023-02-18T13:51:56;0.82;;;0.70;;
76612;SDS011;65507;48.454;-2.058;2023-02-18T13:56:53;3.92;;;0.73;;
76612;SDS011;65507;48.454;-2.058;2023-02-18T14:01:53;0.90;;;0.80;;
76612;SDS011;65507;48.454;-2.058;2023-02-18T14:09:50;1.15;;;0.80;;
76612;SDS011;65507;48.454;-2.058;2023-02-18T14:17:46;2.67;;;0.95;;
76612;SDS011;65507;48.454;-2.058;2023-02-18T14:22:52;3.08;;;0.98;;
76612;SDS011;65507;48.454;-2.058;2023-02-18T14:25:37;0.95;;;0.70;;
76612;SDS011;65507;48.454;-2.058;2023-02-18T14:31:02;1.92;;;0.90;;
76612;SDS011;65507;48.454;-2.058;2023-02-18T14:39:39;1.83;;;1.13;;
76612;SDS011;65507;48.454;-2.058;2023-02-18T14:42:18;2.17;;;0.90;;
76612;SDS011;65507;48.454;-2.058;2023-02-18T14:50:17;1.17;;;0.90;;
76612;SDS011;65507;48.454;-2.058;2023-02-18T14:52:46;2.85;;;0.90;;
76612;SDS011;65507;48.454;-2.058;2023-02-18T14:58:23;3.63;;;0.70;;
76612;SDS011;65507;48.454;-2.058;2023-02-18T15:03:39;1.70;;;0.63;;
76612;SDS011;65507;48.454;-2.058;2023-02-18T15:06:20;0.75;;;0.75;;
76612;SDS011;65507;48.454;-2.058;2023-02-18T15:08:51;1.65;;;1.05;;
76612;SDS011;65507;48.454;-2.058;2023-02-18T15:11:18;2.78;;;0.80;;
76612;SDS011;65507;48.454;-2.058;2023-02-18T15:13:46;1.02;;;0.75;;
76612;SDS011;65507;48.454;-2.058;2023-02-18T15:16:33;1.58;;;0.90;;
76612;SDS011;65507;48.454;-2.058;2023-02-18T15:18:59;2.22;;;0.70;;
76612;SDS011;65507;48.454;-2.058;2023-02-18T15:21:30;1.50;;;0.73;;
76612;SDS011;65507;48.454;-2.058;2023-02-18T15:24:05;3.38;;;0.98;;
76612;SDS011;65507;48.454;-2.058;2023-02-18T15:26:42;6.13;;;0.80;;
76612;SDS011;65507;48.454;-2.058;2023-02-18T15:29:14;1.60;;;0.70;;
76612;SDS011;65507;48.454;-2.058;2023-02-18T15:31:44;0.80;;;0.70;;
76612;SDS011;65507;48.454;-2.058;2023-02-18T15:34:54;2.72;;;0.90;;
76612;SDS011;65507;48.454;-2.058;2023-02-18T15:37:02;1.77;;;0.80;;
76612;SDS011;65507;48.454;-2.058;2023-02-18T15:39:30;1.85;;;1.10;;
76612;SDS011;65507;48.454;-2.058;2023-02-18T15:42:01;4.88;;;1.17;;
76612;SDS011;65507;48.454;-2.058;2023-02-18T15:44:33;2.47;;;1.25;;
76612;SDS011;65507;48.454;-2.058;2023-02-18T15:47:01;2.63;;;1.00;;
76612;SDS011;65507;48.454;-2.058;2023-02-18T15:49:31;3.30;;;1.10;;
76612;SDS011;65507;48.454;-2.058;2023-02-18T15:51:59;3.10;;;1.15;;
76612;SDS011;65507;48.454;-2.058;2023-02-18T15:54:26;1.40;;;1.00;;
76612;SDS011;65507;48.454;-2.058;2023-02-18T15:56:53;1.40;;;0.90;;
76612;SDS011;65507;48.454;-2.058;2023-02-18T15:59:24;1.58;;;0.80;;
76612;SDS011;65507;48.454;-2.058;2023-02-18T16:02:08;1.30;;;0.90;;
76612;SDS011;65507;48.454;-2.058;2023-02-18T16:04:46;1.50;;;0.93;;
76612;SDS011;65507;48.454;-2.058;2023-02-18T16:07:25;1.63;;;1.02;;
76612;SDS011;65507;48.454;-2.058;2023-02-18T16:12:46;1.63;;;1.02;;
76612;SDS011;65507;48.454;-2.058;2023-02-18T16:15:17;1.90;;;0.98;;
76612;SDS011;65507;48.454;-2.058;2023-02-18T16:17:50;2.70;;;0.90;;
76612;SDS011;65507;48.454;-2.058;2023-02-18T16:20:23;2.80;;;0.95;;
76612;SDS011;65507;48.454;-2.058;2023-02-18T16:23:10;2.35;;;0.80;;
76612;SDS011;65507;48.454;-2.058;2023-02-18T16:28:45;2.33;;;0.90;;
76612;SDS011;65507;48.454;-2.058;2023-02-18T16:30:56;1.15;;;0.90;;
76612;SDS011;65507;48.454;-2.058;2023-02-18T16:33:22;1.40;;;0.98;;
76612;SDS011;65507;48.454;-2.058;2023-02-18T16:35:48;0.98;;;0.80;;
76612;SDS011;65507;48.454;-2.058;2023-02-18T16:38:15;0.80;;;0.75;;
76612;SDS011;65507;48.454;-2.058;2023-02-18T16:40:45;2.95;;;1.10;;
76612;SDS011;65507;48.454;-2.058;2023-02-18T16:43:13;1.33;;;1.10;;
76612;SDS011;65507;48.454;-2.058;2023-02-18T16:45:44;4.57;;;1.13;;
76612;SDS011;65507;48.454;-2.058;2023-02-18T16:48:33;1.33;;;1.08;;
76612;SDS011;65507;48.454;-2.058;2023-02-18T16:51:00;2.10;;;0.90;;
76612;SDS011;65507;48.454;-2.058;2023-02-18T16:53:28;2.50;;;1.20;;
76612;SDS011;65507;48.454;-2.058;2023-02-18T16:55:54;3.35;;;1.50;;
76612;SDS011;65507;48.454;-2.058;2023-02-18T16:58:20;1.70;;;1.10;;
76612;SDS011;65507;48.454;-2.058;2023-02-18T17:00:46;1.20;;;1.00;;
76612;SDS011;65507;48.454;-2.058;2023-02-18T17:03:15;1.48;;;1.17;;
76612;SDS011;65507;48.454;-2.058;2023-02-18T17:05:41;1.85;;;1.10;;
76612;SDS011;65507;48.454;-2.058;2023-02-18T17:10:39;2.22;;;1.00;;
76612;SDS011;65507;48.454;-2.058;2023-02-18T17:13:05;1.20;;;0.80;;
76612;SDS011;65507;48.454;-2.058;2023-02-18T17:15:34;1.33;;;1.13;;
76612;SDS011;65507;48.454;-2.058;2023-02-18T17:18:00;0.93;;;0.88;;
76612;SDS011;65507;48.454;-2.058;2023-02-18T17:20:28;1.95;;;1.10;;
76612;SDS011;65507;48.454;-2.058;2023-02-18T17:22:56;2.53;;;1.02;;
76612;SDS011;65507;48.454;-2.058;2023-02-18T17:25:24;1.27;;;1.00;;
76612;SDS011;65507;48.454;-2.058;2023-02-18T17:27:56;1.45;;;0.90;;
76612;SDS011;65507;48.454;-2.058;2023-02-18T17:30:21;1.40;;;1.08;;
76612;SDS011;65507;48.454;-2.058;2023-02-18T17:32:47;4.20;;;1.23;;
76612;SDS011;65507;48.454;-2.058;2023-02-18T17:35:17;3.25;;;1.27;;
76612;SDS011;65507;48.454;-2.058;2023-02-18T17:37:45;1.98;;;1.10;;
76612;SDS011;65507;48.454;-2.058;2023-02-18T17:40:13;2.05;;;1.00;;
76612;SDS011;65507;48.454;-2.058;2023-02-18T17:42:46;1.10;;;1.00;;
76612;SDS011;65507;48.454;-2.058;2023-02-18T17:45:17;3.15;;;1.27;;
76612;SDS011;65507;48.454;-2.058;2023-02-18T17:48:00;1.65;;;1.30;;
76612;SDS011;65507;48.454;-2.058;2023-02-18T17:50:27;1.48;;;1.13;;
76612;SDS011;65507;48.454;-2.058;2023-02-18T17:52:54;2.05;;;1.23;;